createdAt,value
2018-10-02T00:00:17.635Z,36.21
2018-10-02T00:01:17.172Z,36.31
2018-10-02T00:02:18.110Z,36.21
2018-10-02T00:03:18.115Z,36.11
2018-10-02T00:04:17.134Z,36.13
2018-10-02T00:05:17.665Z,36.41
2018-10-02T00:06:18.109Z,36.41
2018-10-02T00:07:17.644Z,36.01
2018-10-02T00:08:17.117Z,36.41
2018-10-02T00:09:17.627Z,36.02
2018-10-02T00:10:17.135Z,36.22
2018-10-02T00:11:17.613Z,36.11
2018-10-02T00:12:17.605Z,36.21
2018-10-02T00:13:17.070Z,36.21
2018-10-02T00:14:17.608Z,36.11
2018-10-02T00:15:17.122Z,36.21
2018-10-02T00:16:17.007Z,36.13
2018-10-02T00:17:16.996Z,36.41
2018-10-02T00:18:17.022Z,36.41
2018-10-02T00:19:17.609Z,36.21
2018-10-02T00:20:16.980Z,36.31
2018-10-02T00:21:16.953Z,36.02
2018-10-02T00:22:16.942Z,36.01
2018-10-02T00:23:16.947Z,36.02
2018-10-02T00:24:17.620Z,36.11
2018-10-02T00:25:17.145Z,36.41
2018-10-02T00:26:16.914Z,36.31
2018-10-02T00:27:16.896Z,36.21
2018-10-02T00:28:16.876Z,36.21
2018-10-02T00:29:17.651Z,36.43
2018-10-02T00:30:17.174Z,36.11
2018-10-02T00:31:16.877Z,36.21
2018-10-02T00:32:17.821Z,36.22
2018-10-02T00:33:17.611Z,36.22
2018-10-02T00:34:16.845Z,36.32
2018-10-02T00:35:17.128Z,36.21
2018-10-02T00:36:16.807Z,36.22
2018-10-02T00:37:16.789Z,36.22
2018-10-02T00:38:16.769Z,36.21
2018-10-02T00:39:16.784Z,36.13
2018-10-02T00:40:16.799Z,36.22
2018-10-02T00:41:16.742Z,36.13
2018-10-02T00:42:16.735Z,36.11
2018-10-02T00:43:16.722Z,36.43
2018-10-02T00:44:17.631Z,36.13
2018-10-02T00:45:16.818Z,36.13
2018-10-02T00:46:16.692Z,36.13
2018-10-02T00:47:17.619Z,36.01
2018-10-02T00:48:17.612Z,36.41
2018-10-02T00:49:16.657Z,36.13
2018-10-02T00:50:16.688Z,36.02
2018-10-02T00:51:16.632Z,36.11
2018-10-02T00:52:16.622Z,36.22
2018-10-02T00:53:16.609Z,36.21
2018-10-02T00:54:17.112Z,36.13
2018-10-02T00:55:16.610Z,36.41
2018-10-02T00:56:16.579Z,36.22
2018-10-02T00:57:16.594Z,36.82
2018-10-02T00:58:16.554Z,36.13
2018-10-02T00:59:16.547Z,36.71
2018-10-02T01:00:16.623Z,36.22
2018-10-02T01:01:16.530Z,36.43
2018-10-02T01:02:16.509Z,36.11
2018-10-02T01:03:16.519Z,36.11
2018-10-02T01:04:16.556Z,36.52
2018-10-02T01:05:16.796Z,36.72
2018-10-02T01:06:16.467Z,36.22
2018-10-02T01:07:16.460Z,36.43
2018-10-02T01:08:16.448Z,36.43
2018-10-02T01:09:17.139Z,35.72
2018-10-02T01:10:16.661Z,36.51
2018-10-02T01:11:17.122Z,35.83
2018-10-02T01:12:16.403Z,35.93
2018-10-02T01:13:16.422Z,36.52
2018-10-02T01:14:16.387Z,35.83
2018-10-02T01:15:16.376Z,36.52
2018-10-02T01:16:16.403Z,35.83
2018-10-02T01:17:17.109Z,35.72
2018-10-02T01:18:17.108Z,35.72
2018-10-02T01:19:17.118Z,35.83
2018-10-02T01:20:16.321Z,35.83
2018-10-02T01:21:16.629Z,35.83
2018-10-02T01:22:17.114Z,35.93
2018-10-02T01:23:16.299Z,35.72
2018-10-02T01:24:16.331Z,35.83
2018-10-02T01:25:17.121Z,36.13
2018-10-02T01:26:16.281Z,35.72
2018-10-02T01:27:16.245Z,35.72
2018-10-02T01:28:16.272Z,36.32
2018-10-02T01:29:16.228Z,36.02
2018-10-02T01:30:17.114Z,36.02
2018-10-02T01:31:16.628Z,35.72
2018-10-02T01:32:17.112Z,36.02
2018-10-02T01:33:17.129Z,36.32
2018-10-02T01:34:16.177Z,35.72
2018-10-02T01:35:16.162Z,36.22
2018-10-02T01:36:16.169Z,36.32
2018-10-02T01:37:16.135Z,36.13
2018-10-02T01:38:17.122Z,36.22
2018-10-02T01:39:16.232Z,35.72
2018-10-02T01:40:16.622Z,36.32
2018-10-02T01:41:16.114Z,36.32
2018-10-02T01:42:16.616Z,36.32
2018-10-02T01:43:16.102Z,36.22
2018-10-02T01:44:16.094Z,36.22
2018-10-02T01:45:16.659Z,36.13
2018-10-02T01:46:16.061Z,36.13
2018-10-02T01:47:16.033Z,36.22
2018-10-02T01:48:16.017Z,36.22
2018-10-02T01:49:16.006Z,36.02
2018-10-02T01:50:16.621Z,36.13
2018-10-02T01:51:16.025Z,36.13
2018-10-02T01:52:15.980Z,36.32
2018-10-02T01:53:15.959Z,36.32
2018-10-02T01:54:15.954Z,36.13
2018-10-02T01:55:15.957Z,36.32
2018-10-02T01:56:16.630Z,36.32
2018-10-02T01:57:15.945Z,36.32
2018-10-02T01:58:15.903Z,36.02
2018-10-02T01:59:15.894Z,36.02
2018-10-02T02:00:15.931Z,36.22
2018-10-02T02:01:15.933Z,36.13
2018-10-02T02:02:15.866Z,36.13
2018-10-02T02:03:16.627Z,36.02
2018-10-02T02:04:15.840Z,36.32
2018-10-02T02:05:15.842Z,36.13
2018-10-02T02:06:15.839Z,36.02
2018-10-02T02:07:15.808Z,36.22
2018-10-02T02:08:16.614Z,35.93
2018-10-02T02:09:15.817Z,36.13
2018-10-02T02:10:16.978Z,36.02
2018-10-02T02:11:15.838Z,36.13
2018-10-02T02:12:15.754Z,36.13
2018-10-02T02:13:15.742Z,36.22
2018-10-02T02:14:15.755Z,36.32
2018-10-02T02:15:15.733Z,36.13
2018-10-02T02:16:19.179Z,36.13
2018-10-02T02:17:15.733Z,36.02
2018-10-02T02:18:15.687Z,36.22
2018-10-02T02:19:15.677Z,35.93
2018-10-02T02:20:18.098Z,36.13
2018-10-02T02:21:16.213Z,36.13
2018-10-02T02:22:15.646Z,35.93
2018-10-02T02:23:15.644Z,36.13
2018-10-02T02:24:15.620Z,36.02
2018-10-02T02:25:22.821Z,36.02
2018-10-02T02:26:15.639Z,36.02
2018-10-02T02:27:15.586Z,36.22
2018-10-02T02:28:15.575Z,36.22
2018-10-02T02:29:15.569Z,35.93
2018-10-02T02:30:16.764Z,36.02
2018-10-02T02:31:15.581Z,36.02
2018-10-02T02:32:15.550Z,36.13
2018-10-02T02:33:15.530Z,35.83
2018-10-02T02:34:15.512Z,35.83
2018-10-02T02:35:15.500Z,36.13
2018-10-02T02:36:15.603Z,36.02
2018-10-02T02:37:16.114Z,36.32
2018-10-02T02:38:15.474Z,36.32
2018-10-02T02:39:15.456Z,36.32
2018-10-02T02:40:19.070Z,36.02
2018-10-02T02:41:16.157Z,36.32
2018-10-02T02:42:15.467Z,36.02
2018-10-02T02:43:15.419Z,36.22
2018-10-02T02:44:15.425Z,36.02
2018-10-02T02:45:15.411Z,36.02
2018-10-02T02:46:15.407Z,36.32
2018-10-02T02:47:15.364Z,36.22
2018-10-02T02:48:15.360Z,36.22
2018-10-02T02:49:15.357Z,36.22
2018-10-02T02:50:15.337Z,36.32
2018-10-02T02:51:15.372Z,36.13
2018-10-02T02:52:15.320Z,36.13
2018-10-02T02:53:15.299Z,36.22
2018-10-02T02:54:15.310Z,36.22
2018-10-02T02:55:16.116Z,36.13
2018-10-02T02:56:15.305Z,36.13
2018-10-02T02:57:15.259Z,36.13
2018-10-02T02:58:15.248Z,36.13
2018-10-02T02:59:15.240Z,36.13
2018-10-02T03:00:15.238Z,36.22
2018-10-02T03:01:15.238Z,36.22
2018-10-02T03:02:15.204Z,36.13
2018-10-02T03:03:15.195Z,36.22
2018-10-02T03:04:15.180Z,36.13
2018-10-02T03:05:15.171Z,36.13
2018-10-02T03:06:15.190Z,36.32
2018-10-02T03:07:15.172Z,36.13
2018-10-02T03:08:15.163Z,36.13
2018-10-02T03:09:15.130Z,36.24
2018-10-02T03:10:15.119Z,36.02
2018-10-02T03:11:15.136Z,36.15
2018-10-02T03:12:15.101Z,36.32
2018-10-02T03:13:15.086Z,36.13
2018-10-02T03:14:15.072Z,36.32
2018-10-02T03:15:15.066Z,36.22
2018-10-02T03:16:15.052Z,36.13
2018-10-02T03:17:15.138Z,36.15
2018-10-02T03:18:15.047Z,36.15
2018-10-02T03:19:15.036Z,36.15
2018-10-02T03:20:15.022Z,36.24
2018-10-02T03:21:15.004Z,36.24
2018-10-02T03:22:15.159Z,36.24
2018-10-02T03:23:15.620Z,36.13
2018-10-02T03:24:14.972Z,36.15
2018-10-02T03:25:14.955Z,36.22
2018-10-02T03:26:14.958Z,36.15
2018-10-02T03:27:15.132Z,36.15
2018-10-02T03:28:14.924Z,36.34
2018-10-02T03:29:15.619Z,36.24
2018-10-02T03:30:15.618Z,36.24
2018-10-02T03:31:14.887Z,36.24
2018-10-02T03:32:14.896Z,36.15
2018-10-02T03:33:14.864Z,36.15
2018-10-02T03:34:15.621Z,36.15
2018-10-02T03:35:14.857Z,36.24
2018-10-02T03:36:15.625Z,36.54
2018-10-02T03:37:14.840Z,36.15
2018-10-02T03:38:14.815Z,36.15
2018-10-02T03:39:15.627Z,36.15
2018-10-02T03:40:14.791Z,36.15
2018-10-02T03:41:15.621Z,36.22
2018-10-02T03:42:14.812Z,36.15
2018-10-02T03:43:15.620Z,36.24
2018-10-02T03:44:14.747Z,36.15
2018-10-02T03:45:14.736Z,36.15
2018-10-02T03:46:14.724Z,36.15
2018-10-02T03:47:14.740Z,36.24
2018-10-02T03:48:14.735Z,36.22
2018-10-02T03:49:14.693Z,36.15
2018-10-02T03:50:14.681Z,36.24
2018-10-02T03:51:14.668Z,36.22
2018-10-02T03:52:15.146Z,36.13
2018-10-02T03:53:15.621Z,36.15
2018-10-02T03:54:14.662Z,36.15
2018-10-02T03:55:14.628Z,36.32
2018-10-02T03:56:14.623Z,36.24
2018-10-02T03:57:14.620Z,36.34
2018-10-02T03:58:14.598Z,36.13
2018-10-02T03:59:14.590Z,36.34
2018-10-02T04:00:15.123Z,36.54
2018-10-02T04:01:14.570Z,36.15
2018-10-02T04:02:14.645Z,36.15
2018-10-02T04:03:14.539Z,36.13
2018-10-02T04:04:14.531Z,36.24
2018-10-02T04:05:14.537Z,36.22
2018-10-02T04:06:14.515Z,36.34
2018-10-02T04:07:15.157Z,35.94
2018-10-02T04:08:14.505Z,36.54
2018-10-02T04:09:15.117Z,35.94
2018-10-02T04:10:15.121Z,36.15
2018-10-02T04:11:15.119Z,36.15
2018-10-02T04:12:14.484Z,36.24
2018-10-02T04:13:14.514Z,36.54
2018-10-02T04:14:15.136Z,36.04
2018-10-02T04:15:15.126Z,36.04
2018-10-02T04:16:14.421Z,36.34
2018-10-02T04:17:14.405Z,36.34
2018-10-02T04:18:15.126Z,36.54
2018-10-02T04:19:15.132Z,36.44
2018-10-02T04:20:15.128Z,36.52
2018-10-02T04:21:14.346Z,36.54
2018-10-02T04:22:14.634Z,36.52
2018-10-02T04:23:14.325Z,36.54
2018-10-02T04:24:14.312Z,36.54
2018-10-02T04:25:14.321Z,36.44
2018-10-02T04:26:14.289Z,36.24
2018-10-02T04:27:14.575Z,36.44
2018-10-02T04:28:14.294Z,36.44
2018-10-02T04:29:14.258Z,36.54
2018-10-02T04:30:14.247Z,36.44
2018-10-02T04:31:14.258Z,36.44
2018-10-02T04:32:14.648Z,36.44
2018-10-02T04:33:14.217Z,36.44
2018-10-02T04:34:14.253Z,36.24
2018-10-02T04:35:14.216Z,36.44
2018-10-02T04:36:14.183Z,36.44
2018-10-02T04:37:14.197Z,36.34
2018-10-02T04:38:14.178Z,36.34
2018-10-02T04:39:14.153Z,36.64
2018-10-02T04:40:14.140Z,36.44
2018-10-02T04:41:15.124Z,36.24
2018-10-02T04:42:14.154Z,36.74
2018-10-02T04:43:14.105Z,36.24
2018-10-02T04:44:14.117Z,36.34
2018-10-02T04:45:14.080Z,36.34
2018-10-02T04:46:14.086Z,36.24
2018-10-02T04:47:14.145Z,36.34
2018-10-02T04:48:14.051Z,36.74
2018-10-02T04:49:14.041Z,36.64
2018-10-02T04:50:14.038Z,36.24
2018-10-02T04:51:14.019Z,36.64
2018-10-02T04:52:14.086Z,36.64
2018-10-02T04:53:13.998Z,36.54
2018-10-02T04:54:13.987Z,36.64
2018-10-02T04:55:13.978Z,36.64
2018-10-02T04:56:14.179Z,36.24
2018-10-02T04:57:14.181Z,36.44
2018-10-02T04:58:13.954Z,36.44
2018-10-02T04:59:13.933Z,36.44
2018-10-02T05:00:13.927Z,36.54
2018-10-02T05:01:13.922Z,36.34
2018-10-02T05:02:14.114Z,36.34
2018-10-02T05:03:14.627Z,36.54
2018-10-02T05:04:13.892Z,36.44
2018-10-02T05:05:13.875Z,36.54
2018-10-02T05:06:13.856Z,36.54
2018-10-02T05:07:13.872Z,36.34
2018-10-02T05:08:13.847Z,36.44
2018-10-02T05:09:14.631Z,36.34
2018-10-02T05:10:13.822Z,36.04
2018-10-02T05:11:13.815Z,36.34
2018-10-02T05:12:14.137Z,36.34
2018-10-02T05:13:13.786Z,36.34
2018-10-02T05:14:13.926Z,36.34
2018-10-02T05:15:13.760Z,36.34
2018-10-02T05:16:14.628Z,36.34
2018-10-02T05:17:14.136Z,36.44
2018-10-02T05:18:13.730Z,36.34
2018-10-02T05:19:13.714Z,36.34
2018-10-02T05:20:13.705Z,36.34
2018-10-02T05:21:13.693Z,36.15
2018-10-02T05:22:13.691Z,36.34
2018-10-02T05:23:14.145Z,36.34
2018-10-02T05:24:14.629Z,35.94
2018-10-02T05:25:13.656Z,36.24
2018-10-02T05:26:14.624Z,36.34
2018-10-02T05:27:13.667Z,36.15
2018-10-02T05:28:13.682Z,36.54
2018-10-02T05:29:14.120Z,36.34
2018-10-02T05:30:13.599Z,36.44
2018-10-02T05:31:13.597Z,36.54
2018-10-02T05:32:13.577Z,36.34
2018-10-02T05:33:13.617Z,36.34
2018-10-02T05:34:13.570Z,36.34
2018-10-02T05:35:13.662Z,36.34
2018-10-02T05:36:14.143Z,36.34
2018-10-02T05:37:13.536Z,36.54
2018-10-02T05:38:13.638Z,35.85
2018-10-02T05:39:13.499Z,36.24
2018-10-02T05:40:13.508Z,36.54
2018-10-02T05:41:13.514Z,36.64
2018-10-02T05:42:13.482Z,36.15
2018-10-02T05:43:13.495Z,36.15
2018-10-02T05:44:13.489Z,35.94
2018-10-02T05:45:13.443Z,36.74
2018-10-02T05:46:14.126Z,36.84
2018-10-02T05:47:13.415Z,36.84
2018-10-02T05:48:14.291Z,36.64
2018-10-02T05:49:14.137Z,36.04
2018-10-02T05:50:13.414Z,36.54
2018-10-02T05:51:14.138Z,37.94
2018-10-02T05:52:13.365Z,37.74
2018-10-02T05:53:14.161Z,38.04
2018-10-02T05:54:13.353Z,37.34
2018-10-02T05:55:14.175Z,37.84
2018-10-02T05:56:14.123Z,37.84
2018-10-02T05:57:13.325Z,37.74
2018-10-02T05:58:13.765Z,37.54
2018-10-02T05:59:14.269Z,38.24
2018-10-02T06:00:13.274Z,37.94
2018-10-02T06:01:13.262Z,38.14
2018-10-02T06:02:14.124Z,38.14
2018-10-02T06:03:13.644Z,38.24
2018-10-02T06:04:13.237Z,38.34
2018-10-02T06:05:13.244Z,38.04
2018-10-02T06:06:14.124Z,37.94
2018-10-02T06:07:14.167Z,37.94
2018-10-02T06:08:13.239Z,38.04
2018-10-02T06:09:13.180Z,38.34
2018-10-02T06:10:13.175Z,38.54
2018-10-02T06:11:14.160Z,38.72
2018-10-02T06:12:13.151Z,39.32
2018-10-02T06:13:13.649Z,39.62
2018-10-02T06:14:13.124Z,39.52
2018-10-02T06:15:13.245Z,39.42
2018-10-02T06:16:13.115Z,40.12
2018-10-02T06:17:13.171Z,40.34
2018-10-02T06:18:13.104Z,39.54
2018-10-02T06:19:13.629Z,39.64
2018-10-02T06:20:13.635Z,40.34
2018-10-02T06:21:13.056Z,41.11
2018-10-02T06:22:13.041Z,40.42
2018-10-02T06:23:13.049Z,40.44
2018-10-02T06:24:13.624Z,40.42
2018-10-02T06:25:13.038Z,40.32
2018-10-02T06:26:13.013Z,40.22
2018-10-02T06:27:12.985Z,40.92
2018-10-02T06:28:12.994Z,41.02
2018-10-02T06:29:13.634Z,40.92
2018-10-02T06:30:13.740Z,41.61
2018-10-02T06:31:13.629Z,41.02
2018-10-02T06:32:12.931Z,40.92
2018-10-02T06:33:13.689Z,40.81
2018-10-02T06:34:13.655Z,40.72
2018-10-02T06:35:13.626Z,40.62
2018-10-02T06:36:13.625Z,40.72
2018-10-02T06:37:12.877Z,41.02
2018-10-02T06:38:13.698Z,40.62
2018-10-02T06:39:13.630Z,40.62
2018-10-02T06:40:13.766Z,40.92
2018-10-02T06:41:13.635Z,41.31
2018-10-02T06:42:13.657Z,41.82
2018-10-02T06:43:13.140Z,41.41
2018-10-02T06:44:13.633Z,41.31
2018-10-02T06:45:12.839Z,41.91
2018-10-02T06:46:13.653Z,41.52
2018-10-02T06:47:13.679Z,41.61
2018-10-02T06:48:13.865Z,41.60
2018-10-02T06:49:13.650Z,41.69
2018-10-02T06:50:13.639Z,42.02
2018-10-02T06:51:13.789Z,41.89
2018-10-02T06:52:12.965Z,42.02
2018-10-02T06:53:13.660Z,41.99
2018-10-02T06:54:13.643Z,41.99
2018-10-02T06:55:12.701Z,41.99
2018-10-02T06:56:13.654Z,41.89
2018-10-02T06:57:13.699Z,42.29
2018-10-02T06:58:12.666Z,41.91
2018-10-02T06:59:13.655Z,41.99
2018-10-02T07:00:13.145Z,41.89
2018-10-02T07:01:13.184Z,42.19
2018-10-02T07:02:13.143Z,42.41
2018-10-02T07:03:13.172Z,42.59
2018-10-02T07:04:13.223Z,42.41
2018-10-02T07:05:12.573Z,42.10
2018-10-02T07:06:13.145Z,41.50
2018-10-02T07:07:13.139Z,42.29
2018-10-02T07:08:12.662Z,42.29
2018-10-02T07:09:13.367Z,42.10
2018-10-02T07:10:13.151Z,41.99
2018-10-02T07:11:15.142Z,42.40
2018-10-02T07:12:12.531Z,41.50
2018-10-02T07:13:14.317Z,41.09
2018-10-02T07:14:13.158Z,40.80
2018-10-02T07:15:13.151Z,40.70
2018-10-02T07:16:12.453Z,40.42
2018-10-02T07:17:13.136Z,39.90
2018-10-02T07:18:13.164Z,40.42
2018-10-02T07:19:12.474Z,39.62
2018-10-02T07:20:13.169Z,39.62
2018-10-02T07:21:13.144Z,39.52
2018-10-02T07:22:13.156Z,38.02
2018-10-02T07:23:13.253Z,38.22
2018-10-02T07:24:13.141Z,38.44
2018-10-02T07:25:13.130Z,38.34
2018-10-02T07:26:12.480Z,38.54
2018-10-02T07:27:12.536Z,38.64
2018-10-02T07:28:13.316Z,38.54
2018-10-02T07:29:12.676Z,39.43
2018-10-02T07:30:12.434Z,38.64
2018-10-02T07:31:13.139Z,38.24
2018-10-02T07:32:13.160Z,38.64
2018-10-02T07:33:13.134Z,38.44
2018-10-02T07:34:13.160Z,38.54
2018-10-02T07:35:13.171Z,38.74
2018-10-02T07:36:13.210Z,38.64
2018-10-02T07:37:12.256Z,38.34
2018-10-02T07:38:12.298Z,38.36
2018-10-02T07:39:13.209Z,38.84
2018-10-02T07:40:13.273Z,38.04
2018-10-02T07:41:13.140Z,38.74
2018-10-02T07:42:12.297Z,38.56
2018-10-02T07:43:13.172Z,38.06
2018-10-02T07:44:13.179Z,38.76
2018-10-02T07:45:13.274Z,38.06
2018-10-02T07:46:13.165Z,37.96
2018-10-02T07:47:14.823Z,38.26
2018-10-02T07:48:12.648Z,38.26
2018-10-02T07:49:12.142Z,37.36
2018-10-02T07:50:12.644Z,37.66
2018-10-02T07:51:12.128Z,37.86
2018-10-02T07:52:12.771Z,37.46
2018-10-02T07:53:12.705Z,37.66
2018-10-02T07:54:13.659Z,37.86
2018-10-02T07:55:12.145Z,37.76
2018-10-02T07:56:12.774Z,37.86
2018-10-02T07:57:12.635Z,37.76
2018-10-02T07:58:12.647Z,37.66
2018-10-02T07:59:12.159Z,37.86
2018-10-02T08:00:12.270Z,37.76
2018-10-02T08:01:11.992Z,37.86
2018-10-02T08:02:12.638Z,37.76
2018-10-02T08:03:14.654Z,37.48
2018-10-02T08:04:12.663Z,38.07
2018-10-02T08:05:12.698Z,38.06
2018-10-02T08:06:12.643Z,37.48
2018-10-02T08:07:12.637Z,37.98
2018-10-02T08:08:12.672Z,37.98
2018-10-02T08:09:12.675Z,38.18
2018-10-02T08:10:12.650Z,37.58
2018-10-02T08:11:12.639Z,37.18
2018-10-02T08:12:12.078Z,37.77
2018-10-02T08:13:11.842Z,38.07
2018-10-02T08:14:12.815Z,37.98
2018-10-02T08:15:11.905Z,36.58
2018-10-02T08:16:11.950Z,36.38
2018-10-02T08:17:12.642Z,36.58
2018-10-02T08:18:11.783Z,37.48
2018-10-02T08:19:12.680Z,37.38
2018-10-02T08:20:12.731Z,37.38
2018-10-02T08:21:12.666Z,37.88
2018-10-02T08:22:12.653Z,38.48
2018-10-02T08:23:12.636Z,38.38
2018-10-02T08:24:11.736Z,38.38
2018-10-02T08:25:12.640Z,38.07
2018-10-02T08:26:11.695Z,38.38
2018-10-02T08:27:12.814Z,38.07
2018-10-02T08:28:12.652Z,38.18
2018-10-02T08:29:12.202Z,38.48
2018-10-02T08:30:11.823Z,37.86
2018-10-02T08:31:12.638Z,38.07
2018-10-02T08:32:12.147Z,38.06
2018-10-02T08:33:12.139Z,38.36
2018-10-02T08:34:12.168Z,38.66
2018-10-02T08:35:12.214Z,38.26
2018-10-02T08:36:12.456Z,38.06
2018-10-02T08:37:11.673Z,38.26
2018-10-02T08:38:12.208Z,38.46
2018-10-02T08:39:12.191Z,37.86
2018-10-02T08:40:12.136Z,37.96
2018-10-02T08:41:12.173Z,38.66
2018-10-02T08:42:12.136Z,38.66
2018-10-02T08:43:12.164Z,38.26
2018-10-02T08:44:12.181Z,37.96
2018-10-02T08:45:11.561Z,38.16
2018-10-02T08:46:12.405Z,38.28
2018-10-02T08:47:12.214Z,38.48
2018-10-02T08:48:12.155Z,38.57
2018-10-02T08:49:12.163Z,38.48
2018-10-02T08:50:11.529Z,38.68
2018-10-02T08:51:11.578Z,38.98
2018-10-02T08:52:12.528Z,38.38
2018-10-02T08:53:12.255Z,38.48
2018-10-02T08:54:12.174Z,38.48
2018-10-02T08:55:12.172Z,38.48
2018-10-02T08:56:12.255Z,39.28
2018-10-02T08:57:12.208Z,39.28
2018-10-02T08:58:14.157Z,39.48
2018-10-02T08:59:12.170Z,39.18
2018-10-02T09:00:12.285Z,39.07
2018-10-02T09:01:11.462Z,39.07
2018-10-02T09:02:11.311Z,39.07
2018-10-02T09:03:12.329Z,38.07
2018-10-02T09:04:11.667Z,38.48
2018-10-02T09:05:12.137Z,38.28
2018-10-02T09:06:11.414Z,39.48
2018-10-02T09:07:12.142Z,38.38
2018-10-02T09:08:12.140Z,38.56
2018-10-02T09:09:12.156Z,38.66
2018-10-02T09:10:11.281Z,38.38
2018-10-02T09:11:12.226Z,38.68
2018-10-02T09:12:11.290Z,39.18
2018-10-02T09:13:12.168Z,38.78
2018-10-02T09:14:12.437Z,38.38
2018-10-02T09:15:18.159Z,39.07
2018-10-02T09:16:12.432Z,39.28
2018-10-02T09:17:11.636Z,39.07
2018-10-02T09:18:11.674Z,39.15
2018-10-02T09:19:11.167Z,39.18
2018-10-02T09:20:11.218Z,39.37
2018-10-02T09:21:11.643Z,39.18
2018-10-02T09:22:11.640Z,39.78
2018-10-02T09:23:11.637Z,39.37
2018-10-02T09:24:12.738Z,39.48
2018-10-02T09:25:13.690Z,39.58
2018-10-02T09:26:11.645Z,39.46
2018-10-02T09:27:11.730Z,39.76
2018-10-02T09:28:11.936Z,39.78
2018-10-02T09:29:11.717Z,39.76
2018-10-02T09:30:11.676Z,39.65
2018-10-02T09:31:11.756Z,39.86
2018-10-02T09:32:11.649Z,39.37
2018-10-02T09:33:11.093Z,40.08
2018-10-02T09:34:11.650Z,39.65
2018-10-02T09:35:11.169Z,39.46
2018-10-02T09:36:11.794Z,40.47
2018-10-02T09:37:11.717Z,40.45
2018-10-02T09:38:11.007Z,40.66
2018-10-02T09:39:11.723Z,40.45
2018-10-02T09:40:11.850Z,40.66
2018-10-02T09:41:11.650Z,39.86
2018-10-02T09:42:11.663Z,39.56
2018-10-02T09:43:11.671Z,40.86
2018-10-02T09:44:12.030Z,40.45
2018-10-02T09:45:11.724Z,41.25
2018-10-02T09:46:10.915Z,40.25
2018-10-02T09:47:11.640Z,41.25
2018-10-02T09:48:11.761Z,41.75
2018-10-02T09:49:11.648Z,42.55
2018-10-02T09:50:11.663Z,42.35
2018-10-02T09:51:11.836Z,42.25
2018-10-02T09:52:10.773Z,41.75
2018-10-02T09:53:11.634Z,42.76
2018-10-02T09:54:11.704Z,42.55
2018-10-02T09:55:11.718Z,42.24
2018-10-02T09:56:11.679Z,42.25
2018-10-02T09:57:11.665Z,42.63
2018-10-02T09:58:11.641Z,42.93
2018-10-02T09:59:11.650Z,42.93
2018-10-02T10:00:11.668Z,43.13
2018-10-02T10:01:11.670Z,43.63
2018-10-02T10:02:11.212Z,43.43
2018-10-02T10:03:10.746Z,43.33
2018-10-02T10:04:11.301Z,43.51
2018-10-02T10:05:12.161Z,43.51
2018-10-02T10:06:11.153Z,43.63
2018-10-02T10:07:10.594Z,44.31
2018-10-02T10:08:11.168Z,43.41
2018-10-02T10:09:11.326Z,43.61
2018-10-02T10:10:11.168Z,43.91
2018-10-02T10:11:10.608Z,44.41
2018-10-02T10:12:11.165Z,44.41
2018-10-02T10:13:10.608Z,44.41
2018-10-02T10:14:11.141Z,44.31
2018-10-02T10:15:15.904Z,44.21
2018-10-02T10:16:11.355Z,44.59
2018-10-02T10:18:20.966Z,43.99
2018-10-02T10:19:21.105Z,43.99
2018-10-02T10:20:21.993Z,44.01
2018-10-02T10:21:20.930Z,43.89
2018-10-02T10:22:20.980Z,44.38
2018-10-02T10:23:20.946Z,44.09
2018-10-02T10:24:21.071Z,44.29
2018-10-02T10:25:20.990Z,44.09
2018-10-02T10:26:20.962Z,43.49
2018-10-02T10:27:20.963Z,43.69
2018-10-02T10:28:21.016Z,43.99
2018-10-02T10:29:20.135Z,43.59
2018-10-02T10:30:20.958Z,43.49
2018-10-02T10:31:20.925Z,43.51
2018-10-02T10:32:21.051Z,43.39
2018-10-02T10:33:21.076Z,43.69
2018-10-02T10:34:20.111Z,43.49
2018-10-02T10:35:21.000Z,43.39
2018-10-02T10:36:20.927Z,43.59
2018-10-02T10:37:20.932Z,42.99
2018-10-02T10:38:20.953Z,42.29
2018-10-02T10:39:20.945Z,43.29
2018-10-02T10:40:21.107Z,42.81
2018-10-02T10:41:21.047Z,42.89
2018-10-02T10:42:20.010Z,42.89
2018-10-02T10:43:20.941Z,43.59
2018-10-02T10:44:20.932Z,43.21
2018-10-02T10:45:27.979Z,42.91
2018-10-02T10:46:21.045Z,43.01
2018-10-02T10:47:20.457Z,42.81
2018-10-02T10:48:20.490Z,43.01
2018-10-02T10:49:20.044Z,43.11
2018-10-02T10:50:19.950Z,43.21
2018-10-02T10:51:20.487Z,43.01
2018-10-02T10:52:20.057Z,43.23
2018-10-02T10:53:20.765Z,43.21
2018-10-02T10:54:20.461Z,43.53
2018-10-02T10:55:20.465Z,43.63
2018-10-02T10:56:20.589Z,43.23
2018-10-02T10:57:20.434Z,43.63
2018-10-02T10:58:20.445Z,43.73
2018-10-02T10:59:20.454Z,43.53
2018-10-02T11:00:21.479Z,43.63
2018-10-02T11:01:20.435Z,43.53
2018-10-02T11:02:20.433Z,43.63
2018-10-02T11:03:19.810Z,43.53
2018-10-02T11:04:20.559Z,43.43
2018-10-02T11:05:20.454Z,43.53
2018-10-02T11:06:20.450Z,43.53
2018-10-02T11:07:20.427Z,43.65
2018-10-02T11:08:19.919Z,43.63
2018-10-02T11:09:20.753Z,43.43
2018-10-02T11:10:20.473Z,43.23
2018-10-02T11:11:20.434Z,44.33
2018-10-02T11:12:20.541Z,43.93
2018-10-02T11:13:20.450Z,44.03
2018-10-02T11:14:20.595Z,43.73
2018-10-02T11:15:20.492Z,43.73
2018-10-02T11:16:19.703Z,44.25
2018-10-02T11:17:20.465Z,43.53
2018-10-02T11:18:20.461Z,44.13
2018-10-02T11:19:19.732Z,44.35
2018-10-02T11:20:20.461Z,44.43
2018-10-02T11:21:20.436Z,44.45
2018-10-02T11:22:20.479Z,44.43
2018-10-02T11:23:20.439Z,44.25
2018-10-02T11:24:19.632Z,44.23
2018-10-02T11:25:20.560Z,43.93
2018-10-02T11:26:20.529Z,44.83
2018-10-02T11:27:19.492Z,44.85
2018-10-02T11:28:19.586Z,45.45
2018-10-02T11:29:20.464Z,44.83
2018-10-02T11:30:19.956Z,44.85
2018-10-02T11:31:20.449Z,44.75
2018-10-02T11:32:19.566Z,45.05
2018-10-02T11:33:20.057Z,45.05
2018-10-02T11:34:19.555Z,44.73
2018-10-02T11:35:21.005Z,44.73
2018-10-02T11:36:19.933Z,44.65
2018-10-02T11:37:19.551Z,44.95
2018-10-02T11:38:19.932Z,44.75
2018-10-02T11:39:19.930Z,43.85
2018-10-02T11:40:19.964Z,43.95
2018-10-02T11:41:19.930Z,44.55
2018-10-02T11:42:19.333Z,44.25
2018-10-02T11:43:19.986Z,44.25
2018-10-02T11:44:20.006Z,44.25
2018-10-02T11:45:19.478Z,44.25
2018-10-02T11:46:19.938Z,44.25
2018-10-02T11:47:19.946Z,44.55
2018-10-02T11:48:19.369Z,44.45
2018-10-02T11:49:20.223Z,44.25
2018-10-02T11:50:19.965Z,44.65
2018-10-02T11:51:19.355Z,44.85
2018-10-02T11:52:20.079Z,45.05
2018-10-02T11:53:19.962Z,44.95
2018-10-02T11:54:19.933Z,45.45
2018-10-02T11:55:20.012Z,45.65
2018-10-02T11:56:19.175Z,45.55
2018-10-02T11:57:19.980Z,45.85
2018-10-02T11:58:19.943Z,45.35
2018-10-02T11:59:19.932Z,45.75
2018-10-02T12:00:19.962Z,45.25
2018-10-02T12:01:20.134Z,45.05
2018-10-02T12:02:20.114Z,45.15
2018-10-02T12:03:19.161Z,46.25
2018-10-02T12:04:19.937Z,46.15
2018-10-02T12:05:19.931Z,46.55
2018-10-02T12:06:19.978Z,46.05
2018-10-02T12:07:20.133Z,46.25
2018-10-02T12:08:19.943Z,46.55
2018-10-02T12:09:19.111Z,46.57
2018-10-02T12:10:19.933Z,46.55
2018-10-02T12:11:19.511Z,46.75
2018-10-02T12:12:20.093Z,46.55
2018-10-02T12:13:19.989Z,46.55
2018-10-02T12:14:20.197Z,46.65
2018-10-02T12:15:20.000Z,47.15
2018-10-02T12:16:19.981Z,46.47
2018-10-02T12:17:18.937Z,46.35
2018-10-02T12:18:19.577Z,46.15
2018-10-02T12:19:19.470Z,46.65
2018-10-02T12:20:19.432Z,46.35
2018-10-02T12:21:19.458Z,46.55
2018-10-02T12:22:19.028Z,46.35
2018-10-02T12:23:19.435Z,46.15
2018-10-02T12:24:19.431Z,46.55
2018-10-02T12:25:18.880Z,46.35
2018-10-02T12:26:19.468Z,46.45
2018-10-02T12:27:19.442Z,46.45
2018-10-02T12:28:19.432Z,47.15
2018-10-02T12:29:19.535Z,46.57
2018-10-02T12:30:19.431Z,46.97
2018-10-02T12:31:19.559Z,46.87
2018-10-02T12:32:19.478Z,47.47
2018-10-02T12:33:19.438Z,47.27
2018-10-02T12:34:19.438Z,47.07
2018-10-02T12:35:19.451Z,46.67
2018-10-02T12:36:18.965Z,47.47
2018-10-02T12:37:19.443Z,47.37
2018-10-02T12:38:19.490Z,47.27
2018-10-02T12:39:19.612Z,47.47
2018-10-02T12:40:19.483Z,47.37
2018-10-02T12:41:19.472Z,47.45
2018-10-02T12:42:19.443Z,47.57
2018-10-02T12:43:19.432Z,47.17
2018-10-02T12:44:19.563Z,47.35
2018-10-02T12:45:19.583Z,48.14
2018-10-02T12:46:19.606Z,48.35
2018-10-02T12:47:18.734Z,46.95
2018-10-02T12:48:18.591Z,48.14
2018-10-02T12:49:18.625Z,47.15
2018-10-02T12:50:19.444Z,47.25
2018-10-02T12:51:19.476Z,46.95
2018-10-02T12:52:19.465Z,47.35
2018-10-02T12:53:19.611Z,47.85